createdAt,value
2023-01-19T00:01:53.197Z,10.02
2023-01-19T00:04:20.977Z,12.95
2023-01-19T00:06:48.773Z,12.57
2023-01-19T00:09:16.322Z,11.40
2023-01-19T00:11:44.289Z,11.00
2023-01-19T00:14:12.089Z,10.35
2023-01-19T00:16:39.913Z,12.05
2023-01-19T00:19:09.828Z,13.10
2023-01-19T00:21:39.922Z,13.65
2023-01-19T00:24:08.102Z,13.48
2023-01-19T00:26:35.797Z,10.10
2023-01-19T00:29:04.732Z,11.63
2023-01-19T00:31:36.639Z,10.70
2023-01-19T00:34:05.375Z,11.68
2023-01-19T00:36:35.372Z,9.30
2023-01-19T00:39:03.353Z,12.43
2023-01-19T00:41:45.083Z,11.05
2023-01-19T00:44:13.640Z,9.60
2023-01-19T00:46:41.459Z,11.85
2023-01-19T00:49:09.532Z,12.38
2023-01-19T00:51:38.912Z,12.27
2023-01-19T00:54:10.384Z,14.07
2023-01-19T00:56:38.474Z,13.60
2023-01-19T00:59:06.320Z,14.23
2023-01-19T01:01:46.098Z,12.00
2023-01-19T01:04:15.226Z,12.07
2023-01-19T01:06:44.706Z,10.60
2023-01-19T01:09:13.084Z,10.27
2023-01-19T01:11:41.108Z,12.30
2023-01-19T01:14:10.266Z,9.82
2023-01-19T01:16:38.433Z,11.05
2023-01-19T01:19:06.292Z,10.65
2023-01-19T01:21:35.849Z,15.80
2023-01-19T01:24:05.663Z,14.02
2023-01-19T01:26:33.557Z,13.80
2023-01-19T01:29:01.593Z,13.18
2023-01-19T01:31:30.251Z,12.88
2023-01-19T01:33:57.974Z,11.93
2023-01-19T01:36:29.199Z,11.73
2023-01-19T01:38:57.122Z,15.98
2023-01-19T01:41:27.519Z,11.93
2023-01-19T01:43:58.614Z,13.40
2023-01-19T01:46:28.272Z,12.87
2023-01-19T01:49:03.015Z,14.63
2023-01-19T01:51:34.490Z,12.68
2023-01-19T01:54:15.202Z,13.10
2023-01-19T01:56:46.953Z,12.60
2023-01-19T01:59:26.306Z,14.93
2023-01-19T02:02:14.687Z,11.93
2023-01-19T02:04:47.951Z,13.13
2023-01-19T02:07:38.772Z,12.75
2023-01-19T02:10:24.534Z,13.88
2023-01-19T02:13:13.250Z,16.20
2023-01-19T02:19:27.723Z,14.38
2023-01-19T02:21:59.989Z,12.15
2023-01-19T02:24:29.385Z,13.55
2023-01-19T02:26:57.896Z,12.00
2023-01-19T02:29:27.859Z,12.40
2023-01-19T02:31:57.437Z,11.65
2023-01-19T02:34:25.099Z,14.23
2023-01-19T02:36:55.203Z,11.73
2023-01-19T02:39:29.051Z,14.63
2023-01-19T02:42:02.839Z,12.05
2023-01-19T02:44:31.701Z,11.82
2023-01-19T02:46:59.479Z,14.40
2023-01-19T02:49:29.587Z,15.25
2023-01-19T02:51:57.943Z,19.43
2023-01-19T02:54:46.843Z,15.77
2023-01-19T02:57:28.499Z,16.35
2023-01-19T03:00:09.661Z,13.80
2023-01-19T03:02:49.782Z,12.30
2023-01-19T03:05:27.741Z,15.30
2023-01-19T03:08:02.457Z,14.07
2023-01-19T03:10:37.607Z,16.98
2023-01-19T03:13:12.706Z,12.93
2023-01-19T03:15:46.766Z,13.10
2023-01-19T03:18:16.491Z,12.13
2023-01-19T03:20:45.034Z,13.48
2023-01-19T03:23:16.895Z,16.13
2023-01-19T03:25:46.524Z,15.38
2023-01-19T03:28:17.547Z,14.45
2023-01-19T03:30:51.562Z,14.80
2023-01-19T03:33:26.737Z,13.38
2023-01-19T03:35:58.860Z,15.63
2023-01-19T03:38:27.914Z,11.18
2023-01-19T03:40:59.342Z,11.52
2023-01-19T03:43:29.684Z,15.73
2023-01-19T03:45:57.882Z,18.88
2023-01-19T03:48:26.058Z,12.20
2023-01-19T03:50:54.037Z,10.48
2023-01-19T03:53:22.608Z,14.40
2023-01-19T03:55:53.563Z,10.80
2023-01-19T03:58:22.242Z,13.50
2023-01-19T04:00:51.304Z,13.15
2023-01-19T04:03:19.949Z,14.48
2023-01-19T04:05:47.823Z,16.60
2023-01-19T04:08:15.508Z,13.53
2023-01-19T04:10:43.301Z,14.23
2023-01-19T04:13:10.952Z,13.35
2023-01-19T04:15:38.766Z,14.38
2023-01-19T04:18:08.349Z,14.85
2023-01-19T04:20:36.072Z,12.47
2023-01-19T04:23:04.211Z,12.85
2023-01-19T04:25:31.942Z,12.77
2023-01-19T04:27:59.551Z,15.23
2023-01-19T04:30:27.527Z,13.02
2023-01-19T04:38:58.462Z,16.60
2023-01-19T04:41:27.871Z,30.85
2023-01-19T04:43:56.569Z,22.45
2023-01-19T04:46:24.469Z,17.70
2023-01-19T04:48:52.954Z,12.80
2023-01-19T04:51:22.104Z,16.55
2023-01-19T04:53:50.014Z,19.20
2023-01-19T04:56:17.833Z,44.70
2023-01-19T04:58:45.796Z,27.13
2023-01-19T05:01:14.165Z,17.27
2023-01-19T05:03:42.040Z,14.90
2023-01-19T05:06:10.142Z,11.93
2023-01-19T05:08:39.249Z,13.68
2023-01-19T05:11:07.152Z,16.10
2023-01-19T05:13:35.210Z,17.48
2023-01-19T05:16:03.494Z,13.02
2023-01-19T05:18:36.126Z,14.30
2023-01-19T05:21:04.154Z,19.48
2023-01-19T05:23:32.972Z,13.70
2023-01-19T05:26:04.286Z,14.55
2023-01-19T05:28:34.201Z,15.80
2023-01-19T05:31:01.970Z,15.23
2023-01-19T05:33:30.475Z,33.92
2023-01-19T05:35:58.140Z,52.00
2023-01-19T05:38:34.925Z,37.90
2023-01-19T05:41:04.989Z,41.08
2023-01-19T05:43:33.437Z,62.42
2023-01-19T05:46:01.091Z,37.47
2023-01-19T05:48:29.005Z,20.20
2023-01-19T05:51:00.592Z,22.55
2023-01-19T05:53:28.609Z,18.20
2023-01-19T05:56:01.432Z,20.95
2023-01-19T05:58:30.876Z,32.10
2023-01-19T06:00:58.861Z,21.80
2023-01-19T06:03:26.956Z,16.80
2023-01-19T06:05:55.687Z,16.63
2023-01-19T06:08:23.592Z,20.08
2023-01-19T06:10:51.755Z,19.05
2023-01-19T06:13:19.801Z,20.23
2023-01-19T06:15:49.633Z,23.40
2023-01-19T06:18:17.304Z,27.60
2023-01-19T06:20:45.340Z,25.58
2023-01-19T06:23:13.318Z,24.65
2023-01-19T06:25:41.120Z,28.57
2023-01-19T06:28:08.775Z,26.98
2023-01-19T06:30:36.765Z,26.33
2023-01-19T06:33:06.537Z,26.65
2023-01-19T06:35:35.864Z,21.00
2023-01-19T06:38:04.720Z,20.50
2023-01-19T06:40:32.581Z,22.02
2023-01-19T06:43:00.499Z,21.02
2023-01-19T06:45:28.572Z,22.35
2023-01-19T06:47:56.244Z,21.40
2023-01-19T06:50:25.431Z,22.83
2023-01-19T06:52:53.523Z,19.98
2023-01-19T06:55:21.424Z,19.23
2023-01-19T06:57:57.224Z,21.95
2023-01-19T07:00:25.424Z,24.15
2023-01-19T07:02:53.817Z,21.23
2023-01-19T07:05:22.096Z,34.97
2023-01-19T07:07:54.618Z,37.45
2023-01-19T07:10:23.445Z,29.60
2023-01-19T07:12:51.438Z,27.75
2023-01-19T07:15:22.705Z,23.93
2023-01-19T07:17:50.729Z,21.48
2023-01-19T07:20:20.061Z,22.63
2023-01-19T07:22:48.889Z,23.42
2023-01-19T07:25:18.619Z,25.48
2023-01-19T07:27:46.243Z,22.13
2023-01-19T07:30:16.221Z,22.38
2023-01-19T07:32:43.914Z,20.80
2023-01-19T07:35:12.163Z,22.75
2023-01-19T07:37:41.174Z,28.35
2023-01-19T07:40:10.890Z,21.87
2023-01-19T07:42:40.168Z,26.83
2023-01-19T07:45:08.942Z,22.17
2023-01-19T07:47:36.592Z,23.17
2023-01-19T07:50:04.684Z,22.27
2023-01-19T07:52:32.622Z,23.93
2023-01-19T07:55:00.283Z,25.73
2023-01-19T07:57:28.721Z,32.03
2023-01-19T07:59:58.044Z,27.98
2023-01-19T08:02:25.857Z,25.60
2023-01-19T08:04:53.791Z,22.63
2023-01-19T08:07:21.475Z,25.83
2023-01-19T08:09:49.163Z,24.52
2023-01-19T08:12:17.466Z,20.45
2023-01-19T08:14:45.225Z,17.58
2023-01-19T08:17:14.801Z,23.00
2023-01-19T08:19:43.827Z,21.00
2023-01-19T08:22:13.675Z,25.10
2023-01-19T08:24:41.520Z,26.00
2023-01-19T08:27:11.514Z,23.05
2023-01-19T08:29:39.280Z,20.80
2023-01-19T08:32:07.339Z,20.15
2023-01-19T08:34:36.472Z,17.63
2023-01-19T08:37:04.608Z,26.17
2023-01-19T08:39:32.794Z,16.88
2023-01-19T08:42:00.865Z,15.73
2023-01-19T08:44:28.554Z,11.13
2023-01-19T08:46:56.755Z,13.98
2023-01-19T08:49:26.017Z,13.20
2023-01-19T08:51:55.261Z,15.73
2023-01-19T08:54:24.318Z,14.33
2023-01-19T08:56:52.097Z,12.70
2023-01-19T08:59:19.708Z,10.95
2023-01-19T09:01:47.998Z,10.82
2023-01-19T09:04:15.848Z,13.98
2023-01-19T09:06:43.603Z,12.90
2023-01-19T09:09:12.584Z,10.68
2023-01-19T09:11:40.649Z,11.25
2023-01-19T09:14:08.448Z,12.88
2023-01-19T09:16:36.286Z,12.73
2023-01-19T09:19:04.400Z,16.10
2023-01-19T09:21:32.304Z,11.93
2023-01-19T09:24:00.825Z,10.73
2023-01-19T09:26:31.656Z,18.25
2023-01-19T09:29:01.799Z,10.75
2023-01-19T09:31:31.758Z,10.13
2023-01-19T09:33:59.797Z,18.10
2023-01-19T09:36:27.626Z,12.65
2023-01-19T09:38:55.699Z,12.13
2023-01-19T09:41:25.950Z,8.82
2023-01-19T09:43:58.797Z,25.93
2023-01-19T09:46:31.321Z,12.07
2023-01-19T09:49:05.206Z,10.10
2023-01-19T09:51:36.043Z,25.05
2023-01-19T09:54:12.233Z,11.73
2023-01-19T09:56:40.274Z,10.07
2023-01-19T09:59:20.663Z,9.10
2023-01-19T10:02:02.041Z,13.00
2023-01-19T10:04:37.588Z,14.00
2023-01-19T10:07:13.516Z,13.30
2023-01-19T10:10:03.752Z,12.40
2023-01-19T10:12:44.523Z,7.65
2023-01-19T10:15:24.221Z,13.25
2023-01-19T10:18:04.059Z,16.70
2023-01-19T10:20:36.362Z,13.27
2023-01-19T10:23:16.560Z,14.90
2023-01-19T10:25:45.280Z,26.27
2023-01-19T10:28:15.206Z,18.05
2023-01-19T10:30:47.375Z,20.15
2023-01-19T10:33:15.549Z,12.70
2023-01-19T10:35:45.123Z,16.13
2023-01-19T10:38:18.510Z,16.25
2023-01-19T10:40:51.938Z,16.58
2023-01-19T10:43:42.900Z,9.52
2023-01-19T10:46:23.122Z,13.32
2023-01-19T10:48:53.354Z,12.20
2023-01-19T10:51:21.702Z,12.20
2023-01-19T10:54:01.723Z,12.25
2023-01-19T10:56:33.836Z,9.32
2023-01-19T10:59:03.693Z,8.93
2023-01-19T11:01:36.869Z,10.70
2023-01-19T11:04:21.619Z,9.95
2023-01-19T11:06:49.457Z,9.05
2023-01-19T11:09:19.844Z,8.13
2023-01-19T11:11:51.037Z,9.18
2023-01-19T11:14:21.109Z,6.60
2023-01-19T11:16:54.416Z,8.63
2023-01-19T11:19:27.195Z,7.82
2023-01-19T11:22:10.336Z,6.90
2023-01-19T11:24:40.156Z,7.43
2023-01-19T11:27:08.296Z,10.13
2023-01-19T11:29:39.099Z,8.45
2023-01-19T11:32:22.377Z,9.75
2023-01-19T11:34:51.522Z,8.95
2023-01-19T11:37:31.751Z,7.60
2023-01-19T11:40:02.755Z,10.93
2023-01-19T11:42:34.359Z,7.70
2023-01-19T11:45:12.452Z,8.05
2023-01-19T11:47:45.386Z,11.73
2023-01-19T11:50:22.438Z,13.75
2023-01-19T11:52:56.606Z,10.70
2023-01-19T11:55:34.260Z,10.13
2023-01-19T11:58:05.066Z,10.43
2023-01-19T12:00:37.676Z,7.20
2023-01-19T12:03:18.398Z,8.30
2023-01-19T12:05:50.164Z,7.37
2023-01-19T12:08:21.665Z,10.52
2023-01-19T12:10:51.951Z,10.27
2023-01-19T12:13:22.953Z,10.68
2023-01-19T12:15:54.292Z,15.38
2023-01-19T12:18:25.992Z,13.73
2023-01-19T12:20:55.641Z,10.13
2023-01-19T12:23:36.121Z,10.38
2023-01-19T12:26:34.307Z,9.15
2023-01-19T12:29:07.534Z,9.93
2023-01-19T12:31:35.687Z,11.90
2023-01-19T12:34:41.145Z,7.95
2023-01-19T12:37:43.845Z,12.18
2023-01-19T12:40:25.974Z,12.00
2023-01-19T12:43:00.665Z,9.07
2023-01-19T12:45:32.736Z,12.53
2023-01-19T12:48:02.096Z,10.07
2023-01-19T12:50:36.145Z,9.60
2023-01-19T12:53:07.980Z,11.68
2023-01-19T12:55:46.504Z,10.18
2023-01-19T12:58:18.001Z,11.70
2023-01-19T13:00:47.088Z,14.77
2023-01-19T13:03:46.499Z,11.70
2023-01-19T13:06:15.589Z,15.77
2023-01-19T13:09:04.036Z,11.13
2023-01-19T13:11:34.578Z,10.93
2023-01-19T13:14:35.125Z,12.93
2023-01-19T13:17:29.317Z,7.28
2023-01-19T13:20:24.548Z,5.95
2023-01-19T13:23:17.481Z,6.82
2023-01-19T13:25:49.274Z,8.43
2023-01-19T13:28:19.398Z,9.18
2023-01-19T13:30:56.952Z,6.30
2023-01-19T13:33:27.736Z,8.02
2023-01-19T13:35:58.952Z,5.38
2023-01-19T13:38:30.064Z,7.07
2023-01-19T13:41:01.108Z,7.50
2023-01-19T13:43:33.226Z,9.55
2023-01-19T13:46:01.622Z,11.82
2023-01-19T13:48:29.404Z,5.18
2023-01-19T13:51:02.543Z,6.40
2023-01-19T13:53:32.619Z,5.35
2023-01-19T13:56:16.948Z,10.05
2023-01-19T13:58:45.050Z,5.40
2023-01-19T14:01:23.844Z,5.90
2023-01-19T14:03:52.593Z,5.23
2023-01-19T14:06:32.156Z,6.00
2023-01-19T14:09:17.838Z,8.95
2023-01-19T14:11:47.075Z,8.45
2023-01-19T14:14:26.575Z,9.60
2023-01-19T14:16:55.225Z,15.40
2023-01-19T14:19:23.591Z,12.35
2023-01-19T14:22:03.134Z,17.92
2023-01-19T14:24:33.420Z,11.63
2023-01-19T14:27:19.350Z,12.52
2023-01-19T14:29:50.699Z,10.70
2023-01-19T14:32:19.722Z,13.13
2023-01-19T14:34:50.645Z,9.25
2023-01-19T14:37:21.692Z,9.75
2023-01-19T14:39:52.967Z,9.90
2023-01-19T14:42:26.995Z,8.83
2023-01-19T14:44:56.981Z,8.90
2023-01-19T14:47:37.996Z,8.52
2023-01-19T14:50:22.447Z,10.45
2023-01-19T14:52:53.094Z,8.45
2023-01-19T14:55:26.312Z,9.90
2023-01-19T14:57:55.690Z,8.13
2023-01-19T15:00:24.198Z,5.57
2023-01-19T15:02:52.034Z,7.50
2023-01-19T15:05:20.103Z,6.18
2023-01-19T15:07:48.189Z,7.30
2023-01-19T15:10:20.751Z,5.78
2023-01-19T15:12:49.870Z,5.53
2023-01-19T15:15:19.494Z,10.00
2023-01-19T15:17:48.015Z,5.40
2023-01-19T15:20:18.543Z,5.10
2023-01-19T15:22:46.788Z,6.30
2023-01-19T15:25:16.507Z,7.43
2023-01-19T15:27:44.902Z,10.68
2023-01-19T15:30:24.796Z,12.02
2023-01-19T15:32:52.449Z,9.97
2023-01-19T15:35:21.992Z,9.50
2023-01-19T15:37:51.305Z,11.32
2023-01-19T15:40:22.647Z,8.70
2023-01-19T15:42:50.723Z,11.10
2023-01-19T15:45:36.806Z,9.10
2023-01-19T15:48:06.220Z,10.40
2023-01-19T15:50:36.644Z,9.85
2023-01-19T15:53:04.653Z,9.35
2023-01-19T15:55:32.311Z,8.98
2023-01-19T15:58:03.016Z,10.23
2023-01-19T16:00:31.568Z,13.57
2023-01-19T16:03:02.532Z,13.25
2023-01-19T16:05:42.509Z,27.05
2023-01-19T16:08:11.750Z,48.40
2023-01-19T16:10:39.801Z,42.40
2023-01-19T16:13:07.471Z,41.05
2023-01-19T16:15:35.523Z,43.42
2023-01-19T16:18:05.090Z,43.95
2023-01-19T16:20:33.176Z,53.58
2023-01-19T16:23:14.535Z,30.27
2023-01-19T16:25:42.931Z,18.83
2023-01-19T16:28:10.687Z,16.38
2023-01-19T16:30:38.503Z,14.65
2023-01-19T16:33:08.415Z,13.85
2023-01-19T16:35:38.419Z,14.77
2023-01-19T16:38:06.077Z,14.48
2023-01-19T16:40:33.870Z,15.10
2023-01-19T16:43:01.642Z,16.65
2023-01-19T16:45:29.542Z,16.55
2023-01-19T16:47:57.301Z,16.60
2023-01-19T16:50:26.461Z,14.65
2023-01-19T16:52:57.471Z,16.83
2023-01-19T16:55:25.253Z,18.13
2023-01-19T16:57:52.968Z,17.77
2023-01-19T17:00:21.130Z,15.00
2023-01-19T17:02:48.901Z,15.00
2023-01-19T17:05:16.637Z,13.30
2023-01-19T17:07:45.890Z,12.90
2023-01-19T17:10:14.015Z,12.15
2023-01-19T17:12:41.670Z,9.47
2023-01-19T17:15:10.385Z,9.65
2023-01-19T17:17:38.231Z,7.80
2023-01-19T17:20:07.383Z,9.55
2023-01-19T17:22:36.555Z,7.60
2023-01-19T17:25:06.455Z,8.27
2023-01-19T17:27:36.053Z,8.77
2023-01-19T17:30:04.337Z,8.05
2023-01-19T17:32:32.056Z,7.85
2023-01-19T17:34:59.691Z,7.93
2023-01-19T17:37:27.507Z,7.87
2023-01-19T17:39:56.115Z,7.57
2023-01-19T17:42:25.442Z,9.52
2023-01-19T17:44:53.270Z,12.25
2023-01-19T17:47:24.624Z,15.88
2023-01-19T17:49:52.282Z,10.40
2023-01-19T17:52:20.527Z,10.90
2023-01-19T17:54:48.134Z,14.15
2023-01-19T17:57:15.777Z,10.27
2023-01-19T17:59:47.372Z,11.80
2023-01-19T18:02:15.098Z,10.10
2023-01-19T18:04:43.004Z,11.82
2023-01-19T18:07:10.918Z,14.40
2023-01-19T18:09:38.660Z,11.98
2023-01-19T18:12:06.758Z,12.63
2023-01-19T18:14:35.048Z,10.43
2023-01-19T18:17:04.130Z,6.38
2023-01-19T18:19:31.777Z,7.85
2023-01-19T18:21:59.753Z,11.85
2023-01-19T18:24:27.892Z,10.77
2023-01-19T18:26:55.907Z,18.03
2023-01-19T18:29:24.470Z,16.40
2023-01-19T18:31:52.362Z,16.67
2023-01-19T18:34:21.745Z,11.30
2023-01-19T18:36:49.904Z,13.48
2023-01-19T18:39:17.989Z,8.40
2023-01-19T18:41:45.876Z,7.60
2023-01-19T18:44:14.218Z,8.10
2023-01-19T18:46:41.891Z,12.48
2023-01-19T18:49:10.352Z,11.07
2023-01-19T18:51:40.471Z,13.27
2023-01-19T18:54:09.437Z,13.93
2023-01-19T18:56:39.187Z,10.40
2023-01-19T18:59:07.222Z,10.98
2023-01-19T19:01:37.967Z,11.80
2023-01-19T19:04:08.182Z,11.70
2023-01-19T19:06:36.090Z,11.15
2023-01-19T19:09:08.383Z,11.23
2023-01-19T19:11:36.591Z,12.50
2023-01-19T19:14:04.758Z,11.00
2023-01-19T19:16:35.485Z,10.13
2023-01-19T19:19:08.448Z,11.02
2023-01-19T19:21:36.773Z,11.63
2023-01-19T19:24:04.926Z,10.77
2023-01-19T19:26:36.759Z,13.95
2023-01-19T19:29:05.288Z,11.43
2023-01-19T19:31:33.254Z,11.70
2023-01-19T19:34:01.416Z,10.90
2023-01-19T19:36:30.182Z,8.20
2023-01-19T19:38:59.968Z,9.02
2023-01-19T19:41:29.352Z,7.93
2023-01-19T19:43:58.785Z,9.68
2023-01-19T19:46:27.719Z,10.85
2023-01-19T19:48:55.855Z,15.60
2023-01-19T19:51:26.991Z,13.02
2023-01-19T19:53:56.914Z,10.80
2023-01-19T19:56:29.310Z,10.52
2023-01-19T19:59:01.103Z,10.60
2023-01-19T20:01:33.546Z,11.50
2023-01-19T20:04:06.940Z,11.55
2023-01-19T20:06:38.764Z,13.43
2023-01-19T20:09:09.137Z,14.32
2023-01-19T20:11:38.124Z,13.55
2023-01-19T20:14:08.002Z,15.20
2023-01-19T20:16:36.744Z,13.38
2023-01-19T20:19:05.627Z,12.90
2023-01-19T20:21:35.870Z,10.07
2023-01-19T20:24:06.221Z,13.05
2023-01-19T20:26:37.367Z,10.77
2023-01-19T20:29:07.934Z,10.93
2023-01-19T20:31:40.712Z,8.97
2023-01-19T20:34:11.217Z,11.07
2023-01-19T20:36:41.355Z,9.35
2023-01-19T20:39:14.164Z,11.98
2023-01-19T20:41:45.170Z,10.27
2023-01-19T20:44:16.199Z,11.73
2023-01-19T20:46:45.017Z,12.52
2023-01-19T20:49:13.354Z,13.57
2023-01-19T20:51:43.464Z,13.13
2023-01-19T20:54:11.743Z,13.18
2023-01-19T20:56:41.517Z,13.87
2023-01-19T20:59:09.987Z,10.07
2023-01-19T21:01:40.380Z,9.98
2023-01-19T21:04:08.815Z,9.27
2023-01-19T21:06:37.330Z,13.18
2023-01-19T21:09:05.675Z,20.40
2023-01-19T21:11:33.816Z,15.77
2023-01-19T21:14:01.963Z,14.63
2023-01-19T21:16:31.868Z,9.93
2023-01-19T21:19:01.452Z,8.57
2023-01-19T21:21:31.484Z,8.53
2023-01-19T21:24:01.590Z,8.73
2023-01-19T21:26:31.145Z,9.40
2023-01-19T21:28:59.227Z,9.80
2023-01-19T21:31:27.993Z,9.27
2023-01-19T21:33:56.495Z,8.53
2023-01-19T21:36:27.747Z,11.82
2023-01-19T21:39:01.113Z,9.75
2023-01-19T21:41:30.263Z,14.40
2023-01-19T21:43:58.546Z,19.60
2023-01-19T21:46:29.009Z,14.87
2023-01-19T21:48:57.753Z,15.55
2023-01-19T21:51:27.279Z,13.40
2023-01-19T21:53:59.621Z,9.98
2023-01-19T21:56:29.072Z,11.43
2023-01-19T21:58:57.970Z,8.37
2023-01-19T22:01:26.308Z,5.85
2023-01-19T22:03:54.725Z,7.63
2023-01-19T22:06:23.301Z,6.93
2023-01-19T22:08:52.812Z,7.35
2023-01-19T22:11:27.783Z,6.67
2023-01-19T22:13:56.243Z,6.18
2023-01-19T22:16:24.469Z,6.50
2023-01-19T22:18:54.159Z,7.45
2023-01-19T22:21:24.445Z,9.93
2023-01-19T22:23:55.187Z,9.23
2023-01-19T22:26:23.802Z,7.50
2023-01-19T22:28:56.156Z,8.38
2023-01-19T22:31:24.997Z,7.85
2023-01-19T22:33:53.158Z,6.68
2023-01-19T22:36:22.623Z,7.37
2023-01-19T22:38:52.576Z,10.40
2023-01-19T22:41:23.517Z,7.60
2023-01-19T22:43:54.640Z,11.20
2023-01-19T22:46:24.010Z,9.38
2023-01-19T22:48:52.768Z,9.60
2023-01-19T22:51:22.319Z,11.57
2023-01-19T22:53:50.557Z,9.15
2023-01-19T22:56:20.333Z,10.55
2023-01-19T22:58:49.866Z,9.35
2023-01-19T23:01:20.439Z,8.23
2023-01-19T23:03:49.003Z,10.27
2023-01-19T23:06:18.919Z,11.02
2023-01-19T23:08:47.273Z,8.00
2023-01-19T23:11:17.465Z,9.60
2023-01-19T23:13:46.228Z,11.00
2023-01-19T23:16:15.287Z,10.23
2023-01-19T23:18:44.207Z,8.82
2023-01-19T23:21:14.609Z,9.13
2023-01-19T23:23:42.720Z,9.00
2023-01-19T23:26:12.238Z,8.87
2023-01-19T23:28:41.549Z,9.90
2023-01-19T23:31:18.407Z,7.70
2023-01-19T23:33:46.736Z,8.57
2023-01-19T23:36:15.267Z,9.05
2023-01-19T23:38:43.617Z,7.77
2023-01-19T23:41:11.324Z,8.05
2023-01-19T23:43:39.497Z,9.38
2023-01-19T23:46:09.466Z,9.10
2023-01-19T23:48:39.060Z,9.20
2023-01-19T23:51:08.251Z,8.47
2023-01-19T23:53:36.438Z,8.95
2023-01-19T23:56:11.803Z,9.75
2023-01-19T23:58:40.131Z,10.30
